sensor_id;sensor_type;location;lat;lon;timestamp;P1;durP1;ratioP1;P2;durP2;ratioP2
70205;SDS011;57593;55.896;37.396;2022-09-09T00:00:20;6.10;;;3.33;;
70205;SDS011;57593;55.896;37.396;2022-09-09T00:02:28;4.22;;;3.00;;
70205;SDS011;57593;55.896;37.396;2022-09-09T00:03:57;5.25;;;2.88;;
70205;SDS011;57593;55.896;37.396;2022-09-09T00:04:34;7.40;;;3.20;;
70205;SDS011;57593;55.896;37.396;2022-09-09T00:05:14;5.85;;;2.80;;
70205;SDS011;57593;55.896;37.396;2022-09-09T00:06:54;4.15;;;3.00;;
70205;SDS011;57593;55.896;37.396;2022-09-09T00:08:24;3.88;;;2.75;;
70205;SDS011;57593;55.896;37.396;2022-09-09T00:09:08;5.10;;;3.35;;
70205;SDS011;57593;55.896;37.396;2022-09-09T00:09:50;5.10;;;2.70;;
70205;SDS011;57593;55.896;37.396;2022-09-09T00:10:37;4.07;;;2.90;;
70205;SDS011;57593;55.896;37.396;2022-09-09T00:11:11;3.70;;;3.08;;
70205;SDS011;57593;55.896;37.396;2022-09-09T00:11:48;7.28;;;3.38;;
70205;SDS011;57593;55.896;37.396;2022-09-09T00:14:18;9.38;;;2.97;;
70205;SDS011;57593;55.896;37.396;2022-09-09T00:15:18;8.63;;;2.95;;
70205;SDS011;57593;55.896;37.396;2022-09-09T00:16:28;5.07;;;3.08;;
70205;SDS011;57593;55.896;37.396;2022-09-09T00:17:09;5.35;;;2.80;;
70205;SDS011;57593;55.896;37.396;2022-09-09T00:18:31;3.10;;;2.45;;
70205;SDS011;57593;55.896;37.396;2022-09-09T00:19:26;6.55;;;2.70;;
70205;SDS011;57593;55.896;37.396;2022-09-09T00:21:14;4.50;;;2.70;;
70205;SDS011;57593;55.896;37.396;2022-09-09T00:21:54;4.20;;;3.20;;
70205;SDS011;57593;55.896;37.396;2022-09-09T00:22:46;5.47;;;2.67;;
70205;SDS011;57593;55.896;37.396;2022-09-09T00:23:30;4.85;;;3.05;;
70205;SDS011;57593;55.896;37.396;2022-09-09T00:25:41;4.53;;;2.50;;
70205;SDS011;57593;55.896;37.396;2022-09-09T00:27:19;3.67;;;2.63;;
70205;SDS011;57593;55.896;37.396;2022-09-09T00:28:01;3.83;;;2.75;;
70205;SDS011;57593;55.896;37.396;2022-09-09T00:28:33;3.15;;;2.67;;
70205;SDS011;57593;55.896;37.396;2022-09-09T00:30:30;3.53;;;2.50;;
70205;SDS011;57593;55.896;37.396;2022-09-09T00:30:46;3.28;;;2.55;;
70205;SDS011;57593;55.896;37.396;2022-09-09T00:31:25;3.30;;;2.88;;
70205;SDS011;57593;55.896;37.396;2022-09-09T00:32:00;5.05;;;2.95;;
70205;SDS011;57593;55.896;37.396;2022-09-09T00:32:39;4.57;;;2.50;;
70205;SDS011;57593;55.896;37.396;2022-09-09T00:33:11;3.13;;;2.45;;
70205;SDS011;57593;55.896;37.396;2022-09-09T00:33:45;4.63;;;2.45;;
70205;SDS011;57593;55.896;37.396;2022-09-09T00:34:19;5.13;;;2.50;;
70205;SDS011;57593;55.896;37.396;2022-09-09T00:35:01;5.60;;;2.35;;
70205;SDS011;57593;55.896;37.396;2022-09-09T00:35:38;5.15;;;3.00;;
70205;SDS011;57593;55.896;37.396;2022-09-09T00:36:15;4.03;;;2.72;;
70205;SDS011;57593;55.896;37.396;2022-09-09T00:36:55;4.35;;;2.67;;
70205;SDS011;57593;55.896;37.396;2022-09-09T00:37:26;5.68;;;2.72;;
70205;SDS011;57593;55.896;37.396;2022-09-09T00:38:13;3.88;;;2.60;;
70205;SDS011;57593;55.896;37.396;2022-09-09T00:38:59;3.85;;;2.85;;
70205;SDS011;57593;55.896;37.396;2022-09-09T00:40:05;4.32;;;2.85;;
70205;SDS011;57593;55.896;37.396;2022-09-09T00:40:38;4.28;;;3.03;;
70205;SDS011;57593;55.896;37.396;2022-09-09T00:42:26;4.75;;;2.83;;
70205;SDS011;57593;55.896;37.396;2022-09-09T00:43:14;5.00;;;2.65;;
70205;SDS011;57593;55.896;37.396;2022-09-09T00:44:01;6.18;;;2.80;;
70205;SDS011;57593;55.896;37.396;2022-09-09T00:44:56;5.13;;;2.35;;
70205;SDS011;57593;55.896;37.396;2022-09-09T00:45:45;3.28;;;2.58;;
70205;SDS011;57593;55.896;37.396;2022-09-09T00:48:25;2.67;;;1.77;;
70205;SDS011;57593;55.896;37.396;2022-09-09T00:49:20;4.18;;;2.40;;
70205;SDS011;57593;55.896;37.396;2022-09-09T00:51:28;3.42;;;2.83;;
70205;SDS011;57593;55.896;37.396;2022-09-09T00:55:21;7.78;;;2.83;;
70205;SDS011;57593;55.896;37.396;2022-09-09T00:56:16;4.25;;;2.40;;
70205;SDS011;57593;55.896;37.396;2022-09-09T00:56:55;3.30;;;2.67;;
70205;SDS011;57593;55.896;37.396;2022-09-09T00:57:36;4.13;;;2.15;;
70205;SDS011;57593;55.896;37.396;2022-09-09T00:58:08;5.47;;;2.92;;
70205;SDS011;57593;55.896;37.396;2022-09-09T00:58:43;6.03;;;2.92;;
70205;SDS011;57593;55.896;37.396;2022-09-09T00:59:36;6.38;;;2.28;;
70205;SDS011;57593;55.896;37.396;2022-09-09T01:01:07;5.03;;;2.72;;
70205;SDS011;57593;55.896;37.396;2022-09-09T01:01:42;3.33;;;2.53;;
70205;SDS011;57593;55.896;37.396;2022-09-09T01:03:57;3.83;;;2.53;;
70205;SDS011;57593;55.896;37.396;2022-09-09T01:04:32;4.18;;;2.33;;
70205;SDS011;57593;55.896;37.396;2022-09-09T01:05:15;3.17;;;2.60;;
70205;SDS011;57593;55.896;37.396;2022-09-09T01:07:03;3.75;;;2.40;;
70205;SDS011;57593;55.896;37.396;2022-09-09T01:07:44;5.28;;;2.70;;
70205;SDS011;57593;55.896;37.396;2022-09-09T01:09:57;2.50;;;2.08;;
70205;SDS011;57593;55.896;37.396;2022-09-09T01:10:50;3.55;;;2.15;;
70205;SDS011;57593;55.896;37.396;2022-09-09T01:11:33;4.05;;;2.15;;
70205;SDS011;57593;55.896;37.396;2022-09-09T01:12:57;4.47;;;2.53;;
70205;SDS011;57593;55.896;37.396;2022-09-09T01:13:35;3.33;;;2.30;;
70205;SDS011;57593;55.896;37.396;2022-09-09T01:15:12;3.65;;;2.45;;
70205;SDS011;57593;55.896;37.396;2022-09-09T01:15:53;3.75;;;2.60;;
70205;SDS011;57593;55.896;37.396;2022-09-09T01:16:25;3.33;;;2.17;;
70205;SDS011;57593;55.896;37.396;2022-09-09T01:16:59;3.10;;;2.13;;
70205;SDS011;57593;55.896;37.396;2022-09-09T01:18:21;3.10;;;2.08;;
70205;SDS011;57593;55.896;37.396;2022-09-09T01:18:56;3.22;;;2.10;;
70205;SDS011;57593;55.896;37.396;2022-09-09T01:19:55;5.55;;;2.50;;
70205;SDS011;57593;55.896;37.396;2022-09-09T01:20:27;4.35;;;2.28;;
70205;SDS011;57593;55.896;37.396;2022-09-09T01:21:57;2.58;;;1.95;;
70205;SDS011;57593;55.896;37.396;2022-09-09T01:23:38;8.15;;;2.53;;
70205;SDS011;57593;55.896;37.396;2022-09-09T01:26:51;4.22;;;2.00;;
70205;SDS011;57593;55.896;37.396;2022-09-09T01:27:29;2.88;;;1.95;;
70205;SDS011;57593;55.896;37.396;2022-09-09T01:28:03;3.35;;;2.30;;
70205;SDS011;57593;55.896;37.396;2022-09-09T01:28:38;2.97;;;2.53;;
70205;SDS011;57593;55.896;37.396;2022-09-09T01:29:16;3.15;;;2.15;;
70205;SDS011;57593;55.896;37.396;2022-09-09T01:29:48;3.15;;;2.42;;
70205;SDS011;57593;55.896;37.396;2022-09-09T01:30:20;4.00;;;2.05;;
70205;SDS011;57593;55.896;37.396;2022-09-09T01:30:52;2.90;;;2.35;;
70205;SDS011;57593;55.896;37.396;2022-09-09T01:31:28;3.80;;;2.17;;
70205;SDS011;57593;55.896;37.396;2022-09-09T01:32:37;2.95;;;2.10;;
70205;SDS011;57593;55.896;37.396;2022-09-09T01:33:16;4.05;;;2.20;;
70205;SDS011;57593;55.896;37.396;2022-09-09T01:33:48;2.72;;;2.28;;
70205;SDS011;57593;55.896;37.396;2022-09-09T01:34:21;4.50;;;2.28;;
70205;SDS011;57593;55.896;37.396;2022-09-09T01:34:53;2.92;;;2.20;;
70205;SDS011;57593;55.896;37.396;2022-09-09T01:36:19;3.63;;;2.25;;
70205;SDS011;57593;55.896;37.396;2022-09-09T01:36:58;3.40;;;2.03;;
70205;SDS011;57593;55.896;37.396;2022-09-09T01:37:35;3.65;;;2.50;;
70205;SDS011;57593;55.896;37.396;2022-09-09T01:38:06;4.10;;;2.17;;
70205;SDS011;57593;55.896;37.396;2022-09-09T01:38:38;4.70;;;2.00;;
70205;SDS011;57593;55.896;37.396;2022-09-09T01:39:09;3.55;;;2.40;;
70205;SDS011;57593;55.896;37.396;2022-09-09T01:39:42;3.95;;;2.50;;
70205;SDS011;57593;55.896;37.396;2022-09-09T01:40:16;4.15;;;2.40;;
70205;SDS011;57593;55.896;37.396;2022-09-09T01:40:47;4.80;;;2.70;;
70205;SDS011;57593;55.896;37.396;2022-09-09T01:41:19;4.07;;;2.42;;
70205;SDS011;57593;55.896;37.396;2022-09-09T01:41:54;4.80;;;2.45;;
70205;SDS011;57593;55.896;37.396;2022-09-09T01:42:26;2.97;;;2.30;;
70205;SDS011;57593;55.896;37.396;2022-09-09T01:42:57;3.97;;;2.33;;
70205;SDS011;57593;55.896;37.396;2022-09-09T01:43:28;2.92;;;2.20;;
70205;SDS011;57593;55.896;37.396;2022-09-09T01:44:00;3.13;;;1.90;;
70205;SDS011;57593;55.896;37.396;2022-09-09T01:44:33;3.72;;;2.00;;
70205;SDS011;57593;55.896;37.396;2022-09-09T01:45:06;3.47;;;2.53;;
70205;SDS011;57593;55.896;37.396;2022-09-09T01:45:38;3.08;;;2.40;;
70205;SDS011;57593;55.896;37.396;2022-09-09T01:46:11;2.92;;;2.40;;
70205;SDS011;57593;55.896;37.396;2022-09-09T01:46:43;4.88;;;2.35;;
70205;SDS011;57593;55.896;37.396;2022-09-09T01:47:23;2.20;;;1.88;;
70205;SDS011;57593;55.896;37.396;2022-09-09T01:48:21;4.95;;;2.50;;
70205;SDS011;57593;55.896;37.396;2022-09-09T01:49:06;7.70;;;2.13;;
70205;SDS011;57593;55.896;37.396;2022-09-09T01:49:38;4.65;;;2.10;;
70205;SDS011;57593;55.896;37.396;2022-09-09T01:50:17;4.40;;;2.33;;
70205;SDS011;57593;55.896;37.396;2022-09-09T01:50:49;2.40;;;1.88;;
70205;SDS011;57593;55.896;37.396;2022-09-09T01:51:19;3.85;;;2.67;;
70205;SDS011;57593;55.896;37.396;2022-09-09T01:51:52;4.35;;;2.47;;
70205;SDS011;57593;55.896;37.396;2022-09-09T01:52:32;3.55;;;2.15;;
70205;SDS011;57593;55.896;37.396;2022-09-09T01:53:06;4.85;;;2.08;;
70205;SDS011;57593;55.896;37.396;2022-09-09T01:53:38;6.50;;;2.55;;
70205;SDS011;57593;55.896;37.396;2022-09-09T01:54:11;2.45;;;1.90;;
70205;SDS011;57593;55.896;37.396;2022-09-09T01:54:42;2.83;;;2.13;;
70205;SDS011;57593;55.896;37.396;2022-09-09T01:55:19;2.70;;;2.00;;
70205;SDS011;57593;55.896;37.396;2022-09-09T01:56:52;3.20;;;1.70;;
70205;SDS011;57593;55.896;37.396;2022-09-09T02:00:22;4.43;;;2.08;;
70205;SDS011;57593;55.896;37.396;2022-09-09T02:01:06;3.22;;;2.10;;
70205;SDS011;57593;55.896;37.396;2022-09-09T02:02:02;3.45;;;2.17;;
70205;SDS011;57593;55.896;37.396;2022-09-09T02:03:53;4.97;;;2.08;;
70205;SDS011;57593;55.896;37.396;2022-09-09T02:05:37;4.18;;;2.00;;
70205;SDS011;57593;55.896;37.396;2022-09-09T02:06:28;3.50;;;2.10;;
70205;SDS011;57593;55.896;37.396;2022-09-09T02:09:09;2.65;;;1.90;;
70205;SDS011;57593;55.896;37.396;2022-09-09T02:09:44;3.03;;;1.90;;
70205;SDS011;57593;55.896;37.396;2022-09-09T02:10:24;5.32;;;2.42;;
70205;SDS011;57593;55.896;37.396;2022-09-09T02:11:53;3.50;;;2.28;;
70205;SDS011;57593;55.896;37.396;2022-09-09T02:12:50;3.45;;;2.30;;
70205;SDS011;57593;55.896;37.396;2022-09-09T02:13:25;3.45;;;2.40;;
70205;SDS011;57593;55.896;37.396;2022-09-09T02:14:00;2.72;;;2.10;;
70205;SDS011;57593;55.896;37.396;2022-09-09T02:14:36;4.45;;;2.05;;
70205;SDS011;57593;55.896;37.396;2022-09-09T02:15:17;3.42;;;2.20;;
70205;SDS011;57593;55.896;37.396;2022-09-09T02:16:00;4.22;;;2.17;;
70205;SDS011;57593;55.896;37.396;2022-09-09T02:16:38;3.10;;;2.13;;
70205;SDS011;57593;55.896;37.396;2022-09-09T02:17:15;3.47;;;2.17;;
70205;SDS011;57593;55.896;37.396;2022-09-09T02:18:05;2.53;;;1.90;;
70205;SDS011;57593;55.896;37.396;2022-09-09T02:18:45;2.88;;;2.17;;
70205;SDS011;57593;55.896;37.396;2022-09-09T02:19:23;4.22;;;2.17;;
70205;SDS011;57593;55.896;37.396;2022-09-09T02:21:11;2.45;;;2.03;;
70205;SDS011;57593;55.896;37.396;2022-09-09T02:21:44;3.20;;;2.10;;
70205;SDS011;57593;55.896;37.396;2022-09-09T02:22:16;3.15;;;2.10;;
70205;SDS011;57593;55.896;37.396;2022-09-09T02:22:50;2.83;;;2.40;;
70205;SDS011;57593;55.896;37.396;2022-09-09T02:23:23;4.20;;;2.13;;
70205;SDS011;57593;55.896;37.396;2022-09-09T02:23:59;2.67;;;2.05;;
70205;SDS011;57593;55.896;37.396;2022-09-09T02:24:36;4.25;;;2.20;;
70205;SDS011;57593;55.896;37.396;2022-09-09T02:25:21;4.80;;;2.28;;
70205;SDS011;57593;55.896;37.396;2022-09-09T02:25:58;6.80;;;2.45;;
70205;SDS011;57593;55.896;37.396;2022-09-09T02:26:30;6.68;;;2.38;;
70205;SDS011;57593;55.896;37.396;2022-09-09T02:27:08;3.45;;;2.22;;
70205;SDS011;57593;55.896;37.396;2022-09-09T02:27:40;5.18;;;2.38;;
70205;SDS011;57593;55.896;37.396;2022-09-09T02:28:13;2.92;;;2.05;;
70205;SDS011;57593;55.896;37.396;2022-09-09T02:28:48;3.97;;;2.10;;
70205;SDS011;57593;55.896;37.396;2022-09-09T02:29:25;5.97;;;2.28;;
70205;SDS011;57593;55.896;37.396;2022-09-09T02:29:59;5.45;;;2.20;;
70205;SDS011;57593;55.896;37.396;2022-09-09T02:30:46;4.78;;;2.20;;
70205;SDS011;57593;55.896;37.396;2022-09-09T02:31:26;4.82;;;2.45;;
70205;SDS011;57593;55.896;37.396;2022-09-09T02:32:03;4.10;;;2.20;;
70205;SDS011;57593;55.896;37.396;2022-09-09T02:32:41;5.28;;;2.53;;
70205;SDS011;57593;55.896;37.396;2022-09-09T02:33:17;3.92;;;2.20;;
70205;SDS011;57593;55.896;37.396;2022-09-09T02:33:53;4.60;;;2.25;;
70205;SDS011;57593;55.896;37.396;2022-09-09T02:34:27;3.17;;;2.30;;
70205;SDS011;57593;55.896;37.396;2022-09-09T02:35:10;3.85;;;2.00;;
70205;SDS011;57593;55.896;37.396;2022-09-09T02:35:46;4.85;;;2.25;;
70205;SDS011;57593;55.896;37.396;2022-09-09T02:36:22;3.33;;;2.22;;
70205;SDS011;57593;55.896;37.396;2022-09-09T02:36:54;3.72;;;2.05;;
70205;SDS011;57593;55.896;37.396;2022-09-09T02:37:29;5.32;;;2.58;;
70205;SDS011;57593;55.896;37.396;2022-09-09T02:38:07;2.75;;;2.00;;
70205;SDS011;57593;55.896;37.396;2022-09-09T02:38:45;3.33;;;2.30;;
70205;SDS011;57593;55.896;37.396;2022-09-09T02:39:25;2.95;;;2.40;;
70205;SDS011;57593;55.896;37.396;2022-09-09T02:39:56;4.15;;;2.20;;
70205;SDS011;57593;55.896;37.396;2022-09-09T02:40:28;3.45;;;2.38;;
70205;SDS011;57593;55.896;37.396;2022-09-09T02:41:04;4.10;;;2.10;;
70205;SDS011;57593;55.896;37.396;2022-09-09T02:41:35;3.63;;;1.92;;
70205;SDS011;57593;55.896;37.396;2022-09-09T02:42:07;4.68;;;2.42;;
70205;SDS011;57593;55.896;37.396;2022-09-09T02:42:39;5.55;;;2.35;;
70205;SDS011;57593;55.896;37.396;2022-09-09T02:43:11;6.40;;;2.30;;
70205;SDS011;57593;55.896;37.396;2022-09-09T02:43:45;2.47;;;2.05;;
70205;SDS011;57593;55.896;37.396;2022-09-09T02:44:18;3.17;;;1.88;;
70205;SDS011;57593;55.896;37.396;2022-09-09T02:44:52;2.97;;;2.17;;
70205;SDS011;57593;55.896;37.396;2022-09-09T02:45:24;6.90;;;2.40;;
70205;SDS011;57593;55.896;37.396;2022-09-09T02:47:38;4.57;;;2.30;;
70205;SDS011;57593;55.896;37.396;2022-09-09T02:50:54;2.40;;;2.20;;
70205;SDS011;57593;55.896;37.396;2022-09-09T02:51:57;9.35;;;2.33;;
70205;SDS011;57593;55.896;37.396;2022-09-09T02:53:35;4.65;;;2.60;;
70205;SDS011;57593;55.896;37.396;2022-09-09T02:54:20;2.88;;;2.00;;
70205;SDS011;57593;55.896;37.396;2022-09-09T02:54:57;6.22;;;2.33;;
70205;SDS011;57593;55.896;37.396;2022-09-09T02:55:37;3.08;;;2.00;;
70205;SDS011;57593;55.896;37.396;2022-09-09T02:56:21;2.60;;;2.22;;
70205;SDS011;57593;55.896;37.396;2022-09-09T02:56:55;3.05;;;2.13;;
70205;SDS011;57593;55.896;37.396;2022-09-09T02:57:33;6.25;;;2.13;;
70205;SDS011;57593;55.896;37.396;2022-09-09T02:58:06;3.20;;;2.40;;
70205;SDS011;57593;55.896;37.396;2022-09-09T02:58:41;3.22;;;2.35;;
70205;SDS011;57593;55.896;37.396;2022-09-09T02:59:12;3.13;;;2.30;;
70205;SDS011;57593;55.896;37.396;2022-09-09T02:59:44;3.85;;;2.58;;
70205;SDS011;57593;55.896;37.396;2022-09-09T03:00:16;4.30;;;2.35;;
70205;SDS011;57593;55.896;37.396;2022-09-09T03:00:55;3.67;;;2.58;;
70205;SDS011;57593;55.896;37.396;2022-09-09T03:01:28;4.22;;;2.40;;
70205;SDS011;57593;55.896;37.396;2022-09-09T03:01:59;4.07;;;2.67;;
70205;SDS011;57593;55.896;37.396;2022-09-09T03:02:31;3.90;;;2.25;;
70205;SDS011;57593;55.896;37.396;2022-09-09T03:03:08;5.38;;;2.97;;
70205;SDS011;57593;55.896;37.396;2022-09-09T03:03:40;3.50;;;2.55;;
70205;SDS011;57593;55.896;37.396;2022-09-09T03:04:16;4.18;;;2.80;;
70205;SDS011;57593;55.896;37.396;2022-09-09T03:04:47;4.53;;;2.67;;
70205;SDS011;57593;55.896;37.396;2022-09-09T03:05:22;4.30;;;2.47;;
70205;SDS011;57593;55.896;37.396;2022-09-09T03:05:54;4.13;;;2.45;;
70205;SDS011;57593;55.896;37.396;2022-09-09T03:06:24;4.30;;;2.28;;
70205;SDS011;57593;55.896;37.396;2022-09-09T03:07:04;5.03;;;2.60;;
70205;SDS011;57593;55.896;37.396;2022-09-09T03:07:35;5.18;;;2.95;;
70205;SDS011;57593;55.896;37.396;2022-09-09T03:08:06;4.15;;;2.63;;
70205;SDS011;57593;55.896;37.396;2022-09-09T03:08:37;4.78;;;2.22;;
70205;SDS011;57593;55.896;37.396;2022-09-09T03:09:08;4.55;;;2.63;;
70205;SDS011;57593;55.896;37.396;2022-09-09T03:09:40;4.75;;;2.80;;
70205;SDS011;57593;55.896;37.396;2022-09-09T03:10:12;3.83;;;2.45;;
70205;SDS011;57593;55.896;37.396;2022-09-09T03:10:43;2.83;;;2.50;;
70205;SDS011;57593;55.896;37.396;2022-09-09T03:11:16;4.50;;;2.53;;
70205;SDS011;57593;55.896;37.396;2022-09-09T03:11:47;3.97;;;2.38;;
70205;SDS011;57593;55.896;37.396;2022-09-09T03:12:20;4.00;;;2.70;;
70205;SDS011;57593;55.896;37.396;2022-09-09T03:12:50;4.97;;;2.45;;
70205;SDS011;57593;55.896;37.396;2022-09-09T03:13:22;4.28;;;2.22;;
70205;SDS011;57593;55.896;37.396;2022-09-09T03:13:54;7.25;;;2.63;;
70205;SDS011;57593;55.896;37.396;2022-09-09T03:14:27;5.15;;;2.38;;
70205;SDS011;57593;55.896;37.396;2022-09-09T03:14:57;5.88;;;2.85;;
70205;SDS011;57593;55.896;37.396;2022-09-09T03:15:28;7.63;;;2.80;;
70205;SDS011;57593;55.896;37.396;2022-09-09T03:16:01;5.43;;;3.05;;
70205;SDS011;57593;55.896;37.396;2022-09-09T03:16:37;3.20;;;2.17;;
70205;SDS011;57593;55.896;37.396;2022-09-09T03:17:08;3.53;;;2.53;;
70205;SDS011;57593;55.896;37.396;2022-09-09T03:17:44;5.35;;;3.25;;
70205;SDS011;57593;55.896;37.396;2022-09-09T03:18:15;6.05;;;2.97;;
70205;SDS011;57593;55.896;37.396;2022-09-09T03:18:46;4.15;;;2.50;;
70205;SDS011;57593;55.896;37.396;2022-09-09T03:19:17;6.00;;;3.42;;
70205;SDS011;57593;55.896;37.396;2022-09-09T03:19:48;4.13;;;2.42;;
70205;SDS011;57593;55.896;37.396;2022-09-09T03:20:20;4.35;;;2.60;;
70205;SDS011;57593;55.896;37.396;2022-09-09T03:20:51;3.70;;;2.53;;
70205;SDS011;57593;55.896;37.396;2022-09-09T03:21:24;5.13;;;2.90;;
70205;SDS011;57593;55.896;37.396;2022-09-09T03:21:55;4.95;;;2.63;;
70205;SDS011;57593;55.896;37.396;2022-09-09T03:22:27;6.50;;;2.70;;
70205;SDS011;57593;55.896;37.396;2022-09-09T03:22:59;4.53;;;2.42;;
70205;SDS011;57593;55.896;37.396;2022-09-09T03:23:30;4.05;;;2.70;;
70205;SDS011;57593;55.896;37.396;2022-09-09T03:24:04;6.95;;;2.70;;
70205;SDS011;57593;55.896;37.396;2022-09-09T03:24:37;4.53;;;2.88;;
70205;SDS011;57593;55.896;37.396;2022-09-09T03:25:08;5.15;;;2.60;;
70205;SDS011;57593;55.896;37.396;2022-09-09T03:25:46;4.53;;;2.65;;
70205;SDS011;57593;55.896;37.396;2022-09-09T03:26:17;2.55;;;2.13;;
70205;SDS011;57593;55.896;37.396;2022-09-09T03:26:50;5.28;;;2.40;;
70205;SDS011;57593;55.896;37.396;2022-09-09T03:27:21;5.70;;;2.70;;
70205;SDS011;57593;55.896;37.396;2022-09-09T03:27:52;4.30;;;2.55;;
70205;SDS011;57593;55.896;37.396;2022-09-09T03:28:25;3.75;;;2.70;;
70205;SDS011;57593;55.896;37.396;2022-09-09T03:29:02;5.32;;;2.50;;
70205;SDS011;57593;55.896;37.396;2022-09-09T03:29:34;4.15;;;2.65;;
70205;SDS011;57593;55.896;37.396;2022-09-09T03:30:07;4.30;;;2.33;;
70205;SDS011;57593;55.896;37.396;2022-09-09T03:30:38;3.92;;;2.58;;
70205;SDS011;57593;55.896;37.396;2022-09-09T03:31:09;4.38;;;2.38;;
70205;SDS011;57593;55.896;37.396;2022-09-09T03:31:42;2.90;;;2.25;;
70205;SDS011;57593;55.896;37.396;2022-09-09T03:32:13;3.80;;;2.42;;
70205;SDS011;57593;55.896;37.396;2022-09-09T03:32:47;4.40;;;2.50;;
70205;SDS011;57593;55.896;37.396;2022-09-09T03:33:18;3.75;;;1.98;;
70205;SDS011;57593;55.896;37.396;2022-09-09T03:33:50;5.63;;;2.97;;
70205;SDS011;57593;55.896;37.396;2022-09-09T03:34:22;3.40;;;2.53;;
70205;SDS011;57593;55.896;37.396;2022-09-09T03:34:53;6.35;;;2.67;;
70205;SDS011;57593;55.896;37.396;2022-09-09T03:35:24;4.25;;;3.15;;
70205;SDS011;57593;55.896;37.396;2022-09-09T03:35:54;4.32;;;2.60;;
70205;SDS011;57593;55.896;37.396;2022-09-09T03:36:27;4.78;;;2.95;;
70205;SDS011;57593;55.896;37.396;2022-09-09T03:36:58;4.47;;;2.35;;
70205;SDS011;57593;55.896;37.396;2022-09-09T03:37:30;4.10;;;2.45;;
70205;SDS011;57593;55.896;37.396;2022-09-09T03:38:01;3.60;;;2.88;;
70205;SDS011;57593;55.896;37.396;2022-09-09T03:38:35;6.32;;;3.40;;
70205;SDS011;57593;55.896;37.396;2022-09-09T03:39:06;5.07;;;3.28;;
70205;SDS011;57593;55.896;37.396;2022-09-09T03:39:37;5.22;;;3.35;;
70205;SDS011;57593;55.896;37.396;2022-09-09T03:40:08;6.68;;;3.25;;
70205;SDS011;57593;55.896;37.396;2022-09-09T03:40:49;8.93;;;3.28;;
70205;SDS011;57593;55.896;37.396;2022-09-09T03:41:22;4.70;;;3.35;;
70205;SDS011;57593;55.896;37.396;2022-09-09T03:41:54;5.82;;;3.03;;
70205;SDS011;57593;55.896;37.396;2022-09-09T03:42:25;3.92;;;3.20;;
70205;SDS011;57593;55.896;37.396;2022-09-09T03:42:58;4.68;;;3.30;;
70205;SDS011;57593;55.896;37.396;2022-09-09T03:43:30;4.95;;;3.10;;
70205;SDS011;57593;55.896;37.396;2022-09-09T03:44:02;6.15;;;3.78;;
70205;SDS011;57593;55.896;37.396;2022-09-09T03:44:38;5.32;;;2.97;;
70205;SDS011;57593;55.896;37.396;2022-09-09T03:45:09;4.65;;;3.13;;
70205;SDS011;57593;55.896;37.396;2022-09-09T03:45:46;6.65;;;3.10;;
70205;SDS011;57593;55.896;37.396;2022-09-09T03:46:21;7.50;;;3.42;;
70205;SDS011;57593;55.896;37.396;2022-09-09T03:46:54;4.90;;;2.80;;
70205;SDS011;57593;55.896;37.396;2022-09-09T03:47:25;5.50;;;2.85;;
70205;SDS011;57593;55.896;37.396;2022-09-09T03:48:01;3.95;;;2.90;;
70205;SDS011;57593;55.896;37.396;2022-09-09T03:48:34;5.32;;;3.03;;
70205;SDS011;57593;55.896;37.396;2022-09-09T03:49:05;4.57;;;3.40;;
70205;SDS011;57593;55.896;37.396;2022-09-09T03:49:36;4.32;;;2.65;;
70205;SDS011;57593;55.896;37.396;2022-09-09T03:50:07;7.20;;;3.90;;
70205;SDS011;57593;55.896;37.396;2022-09-09T03:50:47;7.00;;;2.95;;
70205;SDS011;57593;55.896;37.396;2022-09-09T03:51:21;6.93;;;4.07;;
70205;SDS011;57593;55.896;37.396;2022-09-09T03:51:52;6.13;;;3.42;;
70205;SDS011;57593;55.896;37.396;2022-09-09T03:52:23;4.57;;;3.20;;
70205;SDS011;57593;55.896;37.396;2022-09-09T03:52:57;5.65;;;2.63;;
70205;SDS011;57593;55.896;37.396;2022-09-09T03:53:28;7.20;;;3.55;;
70205;SDS011;57593;55.896;37.396;2022-09-09T03:54:00;7.72;;;3.13;;
70205;SDS011;57593;55.896;37.396;2022-09-09T03:54:32;4.32;;;3.00;;
70205;SDS011;57593;55.896;37.396;2022-09-09T03:55:03;4.40;;;3.42;;
70205;SDS011;57593;55.896;37.396;2022-09-09T03:55:34;5.57;;;3.75;;
70205;SDS011;57593;55.896;37.396;2022-09-09T03:56:06;6.20;;;2.72;;
70205;SDS011;57593;55.896;37.396;2022-09-09T03:56:37;4.13;;;3.22;;
70205;SDS011;57593;55.896;37.396;2022-09-09T03:57:09;3.75;;;3.08;;
70205;SDS011;57593;55.896;37.396;2022-09-09T03:57:41;4.85;;;3.53;;
70205;SDS011;57593;55.896;37.396;2022-09-09T03:58:14;4.25;;;3.00;;
70205;SDS011;57593;55.896;37.396;2022-09-09T03:58:46;3.85;;;2.72;;
70205;SDS011;57593;55.896;37.396;2022-09-09T03:59:17;3.83;;;2.85;;
70205;SDS011;57593;55.896;37.396;2022-09-09T03:59:47;9.98;;;2.80;;
70205;SDS011;57593;55.896;37.396;2022-09-09T04:00:19;5.40;;;3.40;;
70205;SDS011;57593;55.896;37.396;2022-09-09T04:00:58;7.15;;;2.90;;
70205;SDS011;57593;55.896;37.396;2022-09-09T04:01:31;5.13;;;2.75;;
70205;SDS011;57593;55.896;37.396;2022-09-09T04:02:02;3.92;;;2.92;;
70205;SDS011;57593;55.896;37.396;2022-09-09T04:02:33;5.25;;;2.53;;
70205;SDS011;57593;55.896;37.396;2022-09-09T04:03:03;5.55;;;2.80;;
70205;SDS011;57593;55.896;37.396;2022-09-09T04:03:34;5.57;;;3.25;;
70205;SDS011;57593;55.896;37.396;2022-09-09T04:04:05;3.88;;;2.35;;
70205;SDS011;57593;55.896;37.396;2022-09-09T04:04:36;4.00;;;2.63;;
70205;SDS011;57593;55.896;37.396;2022-09-09T04:05:06;6.35;;;2.90;;
70205;SDS011;57593;55.896;37.396;2022-09-09T04:05:41;3.92;;;3.05;;
70205;SDS011;57593;55.896;37.396;2022-09-09T04:06:13;4.63;;;2.67;;
70205;SDS011;57593;55.896;37.396;2022-09-09T04:06:47;4.60;;;2.88;;
70205;SDS011;57593;55.896;37.396;2022-09-09T04:07:18;3.78;;;2.30;;
70205;SDS011;57593;55.896;37.396;2022-09-09T04:07:49;4.70;;;2.53;;
70205;SDS011;57593;55.896;37.396;2022-09-09T04:08:22;5.63;;;2.45;;
70205;SDS011;57593;55.896;37.396;2022-09-09T04:08:55;2.42;;;2.03;;
70205;SDS011;57593;55.896;37.396;2022-09-09T04:09:27;6.95;;;2.58;;
70205;SDS011;57593;55.896;37.396;2022-09-09T04:09:57;5.60;;;2.63;;
70205;SDS011;57593;55.896;37.396;2022-09-09T04:10:29;3.55;;;2.58;;
70205;SDS011;57593;55.896;37.396;2022-09-09T04:11:01;4.93;;;2.35;;
70205;SDS011;57593;55.896;37.396;2022-09-09T04:11:37;4.90;;;2.90;;
70205;SDS011;57593;55.896;37.396;2022-09-09T04:12:08;5.07;;;2.47;;
70205;SDS011;57593;55.896;37.396;2022-09-09T04:12:39;4.82;;;2.70;;
70205;SDS011;57593;55.896;37.396;2022-09-09T04:13:09;4.93;;;2.97;;
70205;SDS011;57593;55.896;37.396;2022-09-09T04:13:41;7.55;;;2.88;;
70205;SDS011;57593;55.896;37.396;2022-09-09T04:14:14;3.58;;;2.25;;
70205;SDS011;57593;55.896;37.396;2022-09-09T04:14:45;7.13;;;3.15;;
70205;SDS011;57593;55.896;37.396;2022-09-09T04:15:15;4.47;;;2.58;;
70205;SDS011;57593;55.896;37.396;2022-09-09T04:15:55;4.25;;;2.53;;
70205;SDS011;57593;55.896;37.396;2022-09-09T04:17:00;5.55;;;2.78;;
70205;SDS011;57593;55.896;37.396;2022-09-09T04:17:30;4.75;;;2.60;;
70205;SDS011;57593;55.896;37.396;2022-09-09T04:18:01;5.90;;;2.65;;
70205;SDS011;57593;55.896;37.396;2022-09-09T04:18:32;5.00;;;2.75;;
70205;SDS011;57593;55.896;37.396;2022-09-09T04:19:04;4.45;;;2.55;;
70205;SDS011;57593;55.896;37.396;2022-09-09T04:19:37;6.80;;;2.63;;
70205;SDS011;57593;55.896;37.396;2022-09-09T04:20:07;4.10;;;2.50;;
70205;SDS011;57593;55.896;37.396;2022-09-09T04:20:41;3.72;;;2.25;;
70205;SDS011;57593;55.896;37.396;2022-09-09T04:21:13;3.33;;;2.60;;